Onaga, KS (66521)

10:06 AM CDT on March 29, 2017 (GMT -0500)
Green House | | Change Station

Elev 1296 ft 39.62 °N, 95.88 °W | Updated 7 seconds ago

Rain
Rain
46.5 °F
Feels Like 41 °F
N
11.0
Wind Variable Wind from ESE

Today
High -- | Low -- °F
--% Chance of Precip.
Yesterday
High -- | Low -- °F
Precip. -- in
Pressure 29.75 in
Visibility 5.0 miles
Clouds Overcast 900 ft
Windchill 41 °F
Dew Point 46 °F
Humidity 98%
Rainfall 1.38 in
Snow Depth Not available.
7:13 AM 7:45 PM
Waxing Crescent, 3% visible
METAR KMHK 291452Z 05017G24KT 5SM -RA BR OVC009 09/09 A2975 RMK AO2 CIG 007V012 SLP074 P0011 60023 T00940094 56017
Pressure 29.75 in
Visibility 5.0 miles
Clouds Overcast 900 ft
Windchill 41 °F
Dew Point 46 °F
Humidity 98%
Rainfall 1.38 in
Snow Depth Not available.
7:13 AM 7:45 PM
Waxing Crescent, 3% visible
METAR KMHK 291452Z 05017G24KT 5SM -RA BR OVC009 09/09 A2975 RMK AO2 CIG 007V012 SLP074 P0011 60023 T00940094 56017

Get Severe Weather Alerts

Thanks for signing up!

Be on the lookout for a verification email in your inbox.

You'll start receiving the daily forecast at 8 AM.

×

10-Day Weather Forecast

Almanac

Astronomy

Mar. 29, 2017 Rise Set
Actual Time
Civil Twilight
Nautical Twilight
Astronomical Twilight
Moon
Length of Visible Light
Length of Day
Tomorrow will be .
, % of the Moon is Illuminated

Today's Extremes

State Highs State Lows

Community

WunderPhotos

Upload Photos

1,962,540 photos uploaded!

WunderBlog® & News

Nearby

Air Quality

  Air Quality AQ Index Pollutant
Not available.

Snow Depth

Station Depth Elevation

Earthquake Activity

City Distance Mag. Time & Date
Minimum magnitude displayed is 2.5.

Earthquake Activity

City Distance Mag. Time & Date
Minimum magnitude displayed is 2.5.

Coastal Water Temperatures

Place Temperature

Stations

Nearby Weather Stations

Station Location Temp. Windchill Dew Point Humidity Wind Precip. Elev Updated Type
                   

Watches & Warnings

There are currently no watches in effect.